Time;durP1;ratioP1;P1;durP2;ratioP2;P2;SDS_P1;SDS_P2;PMS_P1;PMS_P2;Temp;Humidity;BMP_temperature;BMP_pressure;BME280_temperature;BME280_humidity;BME280_pressure;Samples;Min_cycle;Max_cycle;Signal;HPM_P1;HPM_P2
2022/12/13 00:01:54;;;;;;;0.50;0.50;;;-6.50;99.90;;;;;;5115220;28;20286;-85
2022/12/13 00:04:21;;;;;;;0.40;0.40;;;-6.50;99.90;;;;;;5115121;28;20211;-84
2022/12/13 00:06:48;;;;;;;0.50;0.50;;;-6.50;99.90;;;;;;5115062;28;20658;-83
2022/12/13 00:09:16;;;;;;;0.50;0.50;;;-6.50;99.90;;;;;;5116425;28;20748;-84
2022/12/13 00:11:42;;;;;;;0.50;0.50;;;-6.40;99.90;;;;;;5115928;28;20268;-83
2022/12/13 00:14:07;;;;;;;0.40;0.40;;;-6.40;99.90;;;;;;5111758;28;20191;-84
2022/12/13 00:16:33;;;;;;;0.50;0.50;;;-6.40;99.90;;;;;;5097467;28;20708;-84
2022/12/13 00:18:59;;;;;;;0.50;0.50;;;-6.40;99.90;;;;;;5116144;28;20202;-83
2022/12/13 00:21:30;;;;;;;0.50;0.50;;;-6.40;99.90;;;;;;5098186;28;20195;-83
2022/12/13 00:23:58;;;;;;;0.50;0.50;;;-6.40;99.90;;;;;;5105594;28;20690;-83
2022/12/13 00:26:31;;;;;;;0.50;0.50;;;-6.50;99.90;;;;;;5077354;28;20745;-84
2022/12/13 00:29:05;;;;;;;0.50;0.50;;;-6.50;99.90;;;;;;5077786;28;20218;-83
2022/12/13 00:31:32;;;;;;;0.50;0.50;;;-6.60;99.90;;;;;;5077472;28;20188;-84
2022/12/13 00:33:59;;;;;;;0.50;0.50;;;-6.70;99.90;;;;;;5095418;28;20673;-84
2022/12/13 00:36:27;;;;;;;0.57;0.57;;;-6.70;99.90;;;;;;5112910;28;20202;-84
2022/12/13 00:38:59;;;;;;;0.50;0.50;;;-6.80;99.90;;;;;;5116185;28;20192;-83
2022/12/13 00:41:27;;;;;;;0.53;0.53;;;-6.90;99.90;;;;;;5115927;28;20188;-84
2022/12/13 00:43:53;;;;;;;0.47;0.47;;;-6.90;99.90;;;;;;5115889;28;20589;-83
2022/12/13 00:46:21;;;;;;;0.50;0.50;;;-7.00;99.90;;;;;;5097473;28;20278;-83
2022/12/13 00:48:55;;;;;;;0.40;0.40;;;-7.10;99.90;;;;;;5097153;28;20192;-85
2022/12/13 00:51:23;;;;;;;1.80;0.93;;;-7.10;99.90;;;;;;5116591;28;20198;-84
2022/12/13 00:53:49;;;;;;;0.50;0.50;;;-7.10;99.90;;;;;;5098168;28;20195;-84
2022/12/13 00:56:20;;;;;;;0.50;0.50;;;-7.20;99.90;;;;;;5097866;28;20666;-84
2022/12/13 00:58:46;;;;;;;0.50;0.50;;;-7.30;99.90;;;;;;5116175;28;20236;-84
2022/12/13 01:01:14;;;;;;;0.50;0.50;;;-7.30;99.90;;;;;;5116259;28;20724;-84
2022/12/13 01:03:41;;;;;;;0.53;0.53;;;-7.40;99.90;;;;;;5096651;28;20192;-84
2022/12/13 01:06:20;;;;;;;0.50;0.50;;;-7.40;99.90;;;;;;5115649;28;20313;-85
2022/12/13 01:08:47;;;;;;;0.50;0.50;;;-7.40;99.90;;;;;;5115734;28;20211;-84
2022/12/13 01:11:13;;;;;;;0.60;0.60;;;-7.40;99.90;;;;;;5114946;28;20199;-84
2022/12/13 01:13:40;;;;;;;0.57;0.57;;;-7.50;99.90;;;;;;5096615;28;20199;-84
2022/12/13 01:16:07;;;;;;;0.50;0.50;;;-7.60;99.90;;;;;;5115419;28;20183;-84
2022/12/13 01:18:34;;;;;;;0.50;0.50;;;-7.60;99.90;;;;;;5096845;28;20191;-84
2022/12/13 01:21:12;;;;;;;0.50;0.50;;;-7.50;99.90;;;;;;5115269;28;20633;-84
2022/12/13 01:23:38;;;;;;;0.47;0.47;;;-7.50;99.90;;;;;;5107253;28;20192;-84
2022/12/13 01:26:06;;;;;;;0.50;0.50;;;-7.50;99.90;;;;;;5076032;28;20550;-84
2022/12/13 01:28:32;;;;;;;1.20;1.10;;;-7.50;99.90;;;;;;5076988;28;20192;-84
2022/12/13 01:31:01;;;;;;;0.50;0.50;;;-7.50;99.90;;;;;;5097591;28;20195;-84
2022/12/13 01:33:28;;;;;;;0.50;0.50;;;-7.50;99.90;;;;;;5091175;28;20211;-84
2022/12/13 01:35:54;;;;;;;0.50;0.50;;;-7.50;99.90;;;;;;5096486;28;20737;-83
2022/12/13 01:38:21;;;;;;;0.60;0.60;;;-7.50;99.90;;;;;;5096108;28;20195;-83
2022/12/13 01:40:50;;;;;;;0.57;0.57;;;-7.50;99.90;;;;;;5115200;28;20222;-84
2022/12/13 01:43:16;;;;;;;0.50;0.50;;;-7.50;99.90;;;;;;5096276;28;20230;-84
2022/12/13 01:45:43;;;;;;;0.50;0.50;;;-7.60;99.90;;;;;;5111945;28;20211;-84
2022/12/13 01:48:24;;;;;;;0.50;0.50;;;-7.50;99.90;;;;;;5114826;28;20262;-84
2022/12/13 01:50:53;;;;;;;0.50;0.50;;;-7.50;99.90;;;;;;5113163;28;20219;-83
2022/12/13 01:53:25;;;;;;;0.80;0.80;;;-7.60;99.90;;;;;;5114788;28;20229;-82
2022/12/13 01:55:56;;;;;;;0.50;0.50;;;-7.60;99.90;;;;;;5114809;28;20191;-84
2022/12/13 01:58:23;;;;;;;0.50;0.50;;;-7.60;99.90;;;;;;5114839;28;20219;-84
2022/12/13 02:00:50;;;;;;;0.50;0.50;;;-7.60;99.90;;;;;;5115297;28;20199;-83
2022/12/13 02:03:17;;;;;;;0.50;0.50;;;-7.70;99.90;;;;;;5113391;28;20233;-84
2022/12/13 02:06:02;;;;;;;0.50;0.50;;;-7.70;99.90;;;;;;5113654;28;20207;-84
2022/12/13 02:08:28;;;;;;;0.50;0.50;;;-7.80;99.90;;;;;;5093689;28;20196;-83
2022/12/13 02:10:55;;;;;;;0.57;0.57;;;-7.80;99.90;;;;;;5075325;28;20658;-84
2022/12/13 02:13:21;;;;;;;0.60;0.60;;;-7.90;99.90;;;;;;5093882;28;20289;-84
2022/12/13 02:15:59;;;;;;;0.60;0.60;;;-7.90;99.90;;;;;;5075123;28;20759;-83
2022/12/13 02:18:49;;;;;;;0.50;0.50;;;-8.00;99.90;;;;;;5075547;28;20200;-84
2022/12/13 02:21:28;;;;;;;0.60;0.60;;;-8.00;99.90;;;;;;5075186;28;20254;-84
2022/12/13 02:24:22;;;;;;;0.67;0.67;;;-8.10;99.90;;;;;;5081898;28;20336;-84
2022/12/13 02:26:59;;;;;;;0.60;0.60;;;-8.10;99.90;;;;;;5092663;28;20693;-84
2022/12/13 02:29:59;;;;;;;0.60;0.60;;;-8.20;99.90;;;;;;5091870;28;20188;-84
2022/12/13 02:32:38;;;;;;;0.50;0.50;;;-8.20;99.90;;;;;;5091859;28;20188;-84
2022/12/13 02:35:15;;;;;;;0.50;0.50;;;-8.30;99.90;;;;;;5075019;28;20200;-84
2022/12/13 02:37:57;;;;;;;0.60;0.60;;;-8.40;99.90;;;;;;5078462;28;20685;-84
2022/12/13 02:40:30;;;;;;;0.50;0.50;;;-8.40;99.90;;;;;;5097301;28;20196;-84
2022/12/13 02:43:02;;;;;;;0.50;0.50;;;-8.50;99.90;;;;;;5089715;28;20589;-84
2022/12/13 02:45:51;;;;;;;0.50;0.50;;;-8.50;99.90;;;;;;5117121;28;20294;-84
2022/12/13 02:48:24;;;;;;;0.60;0.60;;;-8.50;99.90;;;;;;5116138;28;20194;-83
2022/12/13 02:50:52;;;;;;;0.60;0.60;;;-8.50;99.90;;;;;;5115976;28;20199;-84
2022/12/13 02:53:20;;;;;;;0.57;0.57;;;-8.60;99.90;;;;;;5099285;28;20223;-84
2022/12/13 02:55:46;;;;;;;0.50;0.50;;;-8.60;99.90;;;;;;5117675;28;20611;-84
2022/12/13 02:58:13;;;;;;;0.53;0.53;;;-8.60;99.90;;;;;;5117649;28;20190;-84
2022/12/13 03:00:51;;;;;;;0.50;0.50;;;-8.60;99.90;;;;;;5115043;28;20203;-83
2022/12/13 03:03:25;;;;;;;0.60;0.60;;;-8.60;99.90;;;;;;5098547;28;20657;-83
2022/12/13 03:06:29;;;;;;;0.60;0.60;;;-8.60;99.90;;;;;;5098581;28;20215;-84
2022/12/13 03:09:27;;;;;;;0.50;0.50;;;-8.70;99.90;;;;;;5116872;28;20183;-84
2022/12/13 03:15:08;;;;;;;0.50;0.50;;;-8.70;99.90;;;;;;5116994;28;20213;-84
2022/12/13 03:17:41;;;;;;;0.50;0.50;;;-8.80;99.90;;;;;;5098572;28;20206;-84
2022/12/13 03:20:08;;;;;;;0.60;0.60;;;-8.80;99.90;;;;;;5098204;28;20533;-83
2022/12/13 03:22:34;;;;;;;0.60;0.60;;;-8.80;99.90;;;;;;5116343;28;20193;-84
2022/12/13 03:25:00;;;;;;;0.50;0.50;;;-8.80;99.90;;;;;;5097913;28;20283;-84
2022/12/13 03:27:26;;;;;;;0.50;0.50;;;-8.80;99.90;;;;;;5098125;28;20614;-84
2022/12/13 03:29:51;;;;;;;0.70;0.70;;;-8.80;99.90;;;;;;5116595;28;20183;-84
2022/12/13 03:32:17;;;;;;;0.60;0.60;;;-8.90;99.90;;;;;;5098393;28;20195;-84
2022/12/13 03:34:43;;;;;;;0.60;0.60;;;-8.90;99.90;;;;;;5116758;28;20195;-84
2022/12/13 03:37:09;;;;;;;0.57;0.57;;;-9.00;99.90;;;;;;5116424;28;20192;-86
2022/12/13 03:39:35;;;;;;;0.50;0.50;;;-8.90;99.90;;;;;;5094657;28;20223;-84
2022/12/13 03:42:01;;;;;;;0.60;0.60;;;-9.00;99.90;;;;;;5097840;28;20199;-84
2022/12/13 03:44:26;;;;;;;0.50;0.50;;;-9.10;99.90;;;;;;5097681;28;20280;-85
2022/12/13 03:46:52;;;;;;;0.60;0.60;;;-9.10;99.90;;;;;;5081379;28;20199;-85
2022/12/13 03:49:18;;;;;;;0.50;0.50;;;-9.10;99.90;;;;;;5115982;28;20215;-82
2022/12/13 03:51:44;;;;;;;0.57;0.57;;;-9.20;99.90;;;;;;5097941;28;20621;-84
2022/12/13 03:54:10;;;;;;;0.60;0.60;;;-9.10;99.90;;;;;;5116274;28;20195;-84
2022/12/13 03:56:36;;;;;;;0.50;0.50;;;-9.10;99.90;;;;;;5097769;28;20627;-84
2022/12/13 03:59:01;;;;;;;0.57;0.57;;;-9.20;99.90;;;;;;5097519;28;20199;-83
2022/12/13 04:01:27;;;;;;;0.60;0.60;;;-9.20;99.90;;;;;;5094270;28;20223;-84
2022/12/13 04:03:53;;;;;;;0.50;0.50;;;-9.10;99.90;;;;;;5097360;28;20196;-84
2022/12/13 04:06:19;;;;;;;0.50;0.50;;;-9.10;99.90;;;;;;5097413;28;20199;-82
2022/12/13 04:08:45;;;;;;;0.60;0.60;;;-9.10;99.90;;;;;;5097992;28;20278;-83
2022/12/13 04:14:09;;;;;;;0.50;0.50;;;-9.20;99.90;;;;;;5092341;28;20687;-85
2022/12/13 04:16:35;;;;;;;0.60;0.60;;;-9.20;99.90;;;;;;5097204;28;20206;-84
2022/12/13 04:19:01;;;;;;;0.60;0.60;;;-9.30;99.90;;;;;;5081899;28;20208;-84
2022/12/13 04:21:26;;;;;;;0.50;0.50;;;-9.30;99.90;;;;;;5114868;28;20203;-84
2022/12/13 04:23:52;;;;;;;0.50;0.50;;;-9.30;99.90;;;;;;5093671;28;20330;-84
2022/12/13 04:26:18;;;;;;;0.60;0.60;;;-9.40;99.90;;;;;;5076879;28;20197;-84
2022/12/13 04:28:44;;;;;;;0.50;0.50;;;-9.40;99.90;;;;;;5076810;28;20686;-84
2022/12/13 04:31:10;;;;;;;0.60;0.60;;;-9.40;99.90;;;;;;5076893;28;20204;-84
2022/12/13 04:33:35;;;;;;;0.60;0.60;;;-9.40;99.90;;;;;;5076481;28;20203;-84
2022/12/13 04:36:02;;;;;;;0.50;0.50;;;-9.40;99.90;;;;;;5111122;28;20207;-85
2022/12/13 04:38:28;;;;;;;0.50;0.50;;;-9.40;99.90;;;;;;5117651;28;20207;-84
2022/12/13 04:41:04;;;;;;;0.60;0.60;;;-9.40;99.90;;;;;;5098247;28;20304;-85
2022/12/13 04:43:30;;;;;;;0.60;0.60;;;-9.40;99.90;;;;;;5096854;28;20331;-85
2022/12/13 04:45:55;;;;;;;0.87;0.70;;;-9.40;99.90;;;;;;5115407;28;20643;-85
2022/12/13 04:48:21;;;;;;;0.60;0.60;;;-9.40;99.90;;;;;;5115335;28;20188;-84
2022/12/13 04:50:47;;;;;;;0.83;0.83;;;-9.50;99.90;;;;;;5097558;28;20195;-83
2022/12/13 04:53:15;;;;;;;1.90;1.80;;;-9.40;99.90;;;;;;5097460;28;20263;-84
2022/12/13 04:55:41;;;;;;;0.70;0.70;;;-9.40;99.90;;;;;;5116249;28;20647;-83
2022/12/13 04:58:06;;;;;;;0.60;0.60;;;-9.50;99.90;;;;;;5096816;28;20310;-84
2022/12/13 05:00:32;;;;;;;1.47;1.37;;;-9.50;99.90;;;;;;5095521;28;20685;-83
2022/12/13 05:02:58;;;;;;;0.60;0.60;;;-9.50;99.90;;;;;;5096789;28;20230;-86
2022/12/13 05:05:23;;;;;;;0.50;0.50;;;-9.50;99.90;;;;;;5096895;28;20252;-84
2022/12/13 05:07:49;;;;;;;0.53;0.53;;;-9.50;99.90;;;;;;5115119;28;20203;-86
2022/12/13 05:10:15;;;;;;;0.60;0.60;;;-9.60;99.90;;;;;;5097520;28;20199;-85
2022/12/13 05:12:41;;;;;;;0.50;0.50;;;-9.60;99.90;;;;;;5115172;28;20196;-85
2022/12/13 05:15:07;;;;;;;1.47;1.37;;;-9.60;99.90;;;;;;5115352;28;20214;-84
2022/12/13 05:17:33;;;;;;;0.60;0.60;;;-9.70;99.90;;;;;;5114463;28;20581;-85
2022/12/13 05:19:59;;;;;;;0.60;0.60;;;-9.80;99.90;;;;;;5096626;28;20245;-84
2022/12/13 05:22:36;;;;;;;0.70;0.70;;;-9.80;99.90;;;;;;5130676;27;20604;-75
2022/12/13 05:25:05;;;;;;;0.60;0.60;;;-9.80;99.90;;;;;;5130697;28;20195;-74
2022/12/13 05:27:31;;;;;;;0.50;0.50;;;-9.80;99.90;;;;;;5112275;28;20202;-74
2022/12/13 05:29:57;;;;;;;0.60;0.60;;;-9.90;99.90;;;;;;5111544;28;20792;-74
2022/12/13 05:32:23;;;;;;;0.60;0.60;;;-9.80;99.90;;;;;;5112494;28;20203;-73
2022/12/13 05:34:49;;;;;;;0.50;0.50;;;-9.80;99.90;;;;;;5112391;28;20204;-75
2022/12/13 05:37:15;;;;;;;0.87;0.87;;;-9.90;99.90;;;;;;5130877;28;20194;-75
2022/12/13 05:39:43;;;;;;;0.60;0.60;;;-10.00;99.90;;;;;;5130587;28;20194;-74
2022/12/13 05:42:10;;;;;;;0.60;0.60;;;-10.00;99.90;;;;;;5130599;28;20217;-76
2022/12/13 05:44:36;;;;;;;0.60;0.60;;;-9.90;99.90;;;;;;5111974;28;20199;-76
2022/12/13 05:47:01;;;;;;;0.60;0.60;;;-10.00;99.90;;;;;;5130648;28;20198;-75
2022/12/13 05:49:27;;;;;;;0.60;0.60;;;-10.00;99.90;;;;;;5130455;28;20194;-76
2022/12/13 05:51:56;;;;;;;0.50;0.50;;;-9.90;99.90;;;;;;5121909;28;20203;-76
2022/12/13 05:54:22;;;;;;;0.60;0.60;;;-10.00;99.90;;;;;;5109847;28;20187;-75
2022/12/13 05:56:47;;;;;;;0.53;0.53;;;-10.00;99.90;;;;;;5091755;28;20287;-74
2022/12/13 05:59:13;;;;;;;0.60;0.60;;;-10.10;99.90;;;;;;5110061;28;20237;-76
2022/12/13 06:01:42;;;;;;;0.50;0.50;;;-10.20;99.90;;;;;;5109686;28;20622;-75
2022/12/13 06:04:08;;;;;;;0.60;0.60;;;-10.20;99.90;;;;;;5109938;28;20253;-74
2022/12/13 06:06:37;;;;;;;0.50;0.50;;;-10.20;99.90;;;;;;5109472;28;20202;-76
2022/12/13 06:09:03;;;;;;;0.50;0.50;;;-10.20;99.90;;;;;;5109791;28;20582;-75
2022/12/13 06:11:29;;;;;;;0.50;0.50;;;-10.20;99.90;;;;;;5109479;28;20252;-75
2022/12/13 06:13:57;;;;;;;0.60;0.60;;;-10.20;99.90;;;;;;5110997;28;20281;-76
2022/12/13 06:16:23;;;;;;;0.50;0.50;;;-10.20;99.90;;;;;;5111890;28;20202;-76
2022/12/13 06:18:53;;;;;;;0.60;0.60;;;-10.30;99.90;;;;;;5111989;28;20202;-75
2022/12/13 06:21:18;;;;;;;0.60;0.60;;;-10.40;99.90;;;;;;5129582;28;20251;-76
2022/12/13 06:23:44;;;;;;;0.60;0.60;;;-10.50;99.90;;;;;;5107800;28;20223;-75
2022/12/13 06:26:12;;;;;;;0.67;0.67;;;-10.40;99.90;;;;;;5109443;28;20657;-75
2022/12/13 06:28:38;;;;;;;0.70;0.70;;;-10.40;99.90;;;;;;5090997;28;20237;-76
2022/12/13 06:31:04;;;;;;;0.50;0.50;;;-10.50;99.90;;;;;;5115258;28;20221;-76
2022/12/13 06:33:34;;;;;;;0.60;0.60;;;-10.50;99.90;;;;;;5118298;28;20195;-75
2022/12/13 06:36:00;;;;;;;0.60;0.60;;;-10.60;99.90;;;;;;5097986;28;20552;-76
2022/12/13 06:38:26;;;;;;;0.60;0.60;;;-10.70;99.90;;;;;;5116220;28;20195;-76
2022/12/13 06:40:51;;;;;;;0.60;0.60;;;-10.70;99.90;;;;;;5131707;27;20555;-75
2022/12/13 06:43:19;;;;;;;0.50;0.50;;;-10.80;99.90;;;;;;5115840;28;20190;-75
2022/12/13 06:45:45;;;;;;;0.60;0.60;;;-10.80;99.90;;;;;;5115902;28;20250;-76
2022/12/13 06:48:11;;;;;;;0.60;0.60;;;-10.80;99.90;;;;;;5106978;28;20597;-76
2022/12/13 06:50:37;;;;;;;0.80;0.80;;;-10.80;99.90;;;;;;5095256;28;20193;-76
2022/12/13 06:53:05;;;;;;;0.50;0.50;;;-10.80;99.90;;;;;;5095315;28;20223;-75
2022/12/13 06:55:31;;;;;;;0.60;0.60;;;-10.80;99.90;;;;;;5095298;28;20335;-75
2022/12/13 06:57:57;;;;;;;0.50;0.50;;;-10.80;99.90;;;;;;5095229;28;20275;-75
2022/12/13 07:00:23;;;;;;;0.50;0.50;;;-10.90;99.90;;;;;;5094933;28;20838;-76
2022/12/13 07:02:54;;;;;;;0.50;0.50;;;-10.90;99.90;;;;;;5076890;28;20192;-76
2022/12/13 07:05:23;;;;;;;0.60;0.60;;;-11.00;99.90;;;;;;5095056;28;20245;-76
2022/12/13 07:07:49;;;;;;;0.60;0.60;;;-11.00;99.90;;;;;;5094985;28;20219;-76
2022/12/13 07:10:15;;;;;;;0.60;0.60;;;-11.00;99.90;;;;;;5115323;28;20223;-76
2022/12/13 07:12:41;;;;;;;0.50;0.50;;;-11.00;99.90;;;;;;5115079;28;20222;-75
2022/12/13 07:15:07;;;;;;;0.60;0.60;;;-11.00;99.90;;;;;;5096987;28;20236;-74
2022/12/13 07:17:33;;;;;;;0.57;0.57;;;-11.00;99.90;;;;;;5131061;27;20286;-75
2022/12/13 07:19:59;;;;;;;1.07;1.03;;;-10.90;99.90;;;;;;5097059;28;20275;-75
2022/12/13 07:22:24;;;;;;;0.60;0.60;;;-10.90;99.90;;;;;;5096340;28;20706;-75
2022/12/13 07:24:50;;;;;;;0.77;0.77;;;-10.90;99.90;;;;;;5093134;28;20231;-75
2022/12/13 07:27:16;;;;;;;0.60;0.60;;;-10.90;99.90;;;;;;5100008;28;20201;-75
2022/12/13 07:29:42;;;;;;;0.70;0.70;;;-11.00;99.90;;;;;;5114866;28;20607;-75
2022/12/13 07:32:16;;;;;;;0.60;0.60;;;-11.00;99.90;;;;;;5096775;28;20196;-75
2022/12/13 07:34:45;;;;;;;0.60;0.60;;;-11.00;99.90;;;;;;5114820;28;20191;-76
2022/12/13 07:37:14;;;;;;;0.57;0.57;;;-11.00;99.90;;;;;;5096659;28;20681;-75
2022/12/13 07:39:43;;;;;;;0.50;0.50;;;-11.00;99.90;;;;;;5096776;28;20204;-75
2022/12/13 07:42:11;;;;;;;0.50;0.50;;;-11.00;99.90;;;;;;5096347;28;20211;-76
2022/12/13 07:44:37;;;;;;;0.60;0.60;;;-11.10;99.90;;;;;;5102956;28;20203;-75
2022/12/13 07:47:06;;;;;;;0.60;0.60;;;-11.10;99.90;;;;;;5076224;28;20204;-75
2022/12/13 07:49:58;;;;;;;0.50;0.50;;;-11.10;99.90;;;;;;5075767;28;20192;-76
2022/12/13 07:52:24;;;;;;;0.60;0.60;;;-11.00;99.90;;;;;;5094077;28;20685;-75
2022/12/13 07:54:49;;;;;;;0.50;0.50;;;-11.00;99.90;;;;;;5076077;28;20196;-76
2022/12/13 07:57:15;;;;;;;0.60;0.60;;;-11.00;99.90;;;;;;5094200;28;20194;-75
2022/12/13 07:59:41;;;;;;;0.50;0.50;;;-10.90;99.90;;;;;;5093934;28;20275;-76
2022/12/13 08:02:12;;;;;;;0.50;0.50;;;-10.90;99.90;;;;;;5093947;28;20268;-75
2022/12/13 08:04:37;;;;;;;0.75;0.75;;;-10.90;99.90;;;;;;5097501;28;20442;-75
2022/12/13 08:07:07;;;;;;;0.63;0.63;;;-10.90;99.90;;;;;;5096178;28;20199;-76
2022/12/13 08:09:33;;;;;;;0.70;0.70;;;-10.90;99.90;;;;;;5095745;28;20260;-74
2022/12/13 08:12:00;;;;;;;0.60;0.60;;;-10.90;99.90;;;;;;5114104;28;20670;-75
2022/12/13 08:14:26;;;;;;;0.70;0.70;;;-10.90;99.90;;;;;;5095713;28;20244;-74
2022/12/13 08:16:52;;;;;;;0.60;0.60;;;-10.80;99.90;;;;;;5113992;28;20658;-75
2022/12/13 08:19:18;;;;;;;0.50;0.50;;;-10.90;99.90;;;;;;5095941;28;20221;-76
2022/12/13 08:21:44;;;;;;;0.60;0.60;;;-10.90;99.90;;;;;;5113702;28;20586;-75
2022/12/13 08:24:09;;;;;;;0.60;0.60;;;-10.90;99.90;;;;;;5112333;28;20217;-76
2022/12/13 08:26:36;;;;;;;0.67;0.67;;;-10.90;99.90;;;;;;5113929;28;20188;-75
2022/12/13 08:29:02;;;;;;;4.27;1.53;;;-10.90;99.90;;;;;;5113917;28;20188;-76
2022/12/13 08:31:28;;;;;;;0.60;0.60;;;-11.00;99.90;;;;;;5095498;28;20195;-76
2022/12/13 08:33:54;;;;;;;0.83;0.83;;;-11.00;99.90;;;;;;5113861;28;20191;-76
2022/12/13 08:36:22;;;;;;;0.60;0.60;;;-11.00;99.90;;;;;;5113617;28;20201;-75
2022/12/13 08:38:52;;;;;;;0.60;0.60;;;-11.00;99.90;;;;;;5095589;28;20544;-75
2022/12/13 08:41:19;;;;;;;0.60;0.60;;;-11.00;99.90;;;;;;5113352;28;20195;-75
2022/12/13 08:43:45;;;;;;;1.13;0.97;;;-11.00;99.90;;;;;;5113884;28;20237;-76
2022/12/13 08:46:17;;;;;;;0.60;0.60;;;-10.90;99.90;;;;;;5095437;28;20199;-76
2022/12/13 08:48:42;;;;;;;0.60;0.60;;;-11.00;99.90;;;;;;5095109;28;20242;-75
2022/12/13 08:51:11;;;;;;;1.57;1.47;;;-11.10;99.90;;;;;;5095442;28;20223;-75
2022/12/13 08:53:38;;;;;;;0.67;0.67;;;-11.20;99.90;;;;;;5113372;28;20266;-76
2022/12/13 08:56:07;;;;;;;0.60;0.60;;;-11.30;99.90;;;;;;5095023;28;20743;-75
2022/12/13 08:58:32;;;;;;;0.50;0.50;;;-11.20;99.90;;;;;;5113317;28;20669;-75
2022/12/13 09:00:58;;;;;;;0.50;0.50;;;-11.20;99.90;;;;;;5109866;28;20211;-75
2022/12/13 09:03:24;;;;;;;0.60;0.60;;;-11.30;99.90;;;;;;5094961;28;20195;-74
2022/12/13 09:05:50;;;;;;;0.50;0.50;;;-11.20;99.90;;;;;;5113260;28;20187;-74
2022/12/13 09:08:17;;;;;;;0.50;0.50;;;-11.10;99.90;;;;;;5113240;28;20194;-75
2022/12/13 09:10:44;;;;;;;0.53;0.53;;;-11.10;99.90;;;;;;5094918;28;20199;-76
2022/12/13 09:13:09;;;;;;;0.50;0.50;;;-11.10;99.90;;;;;;5095100;28;20195;-75
2022/12/13 09:15:38;;;;;;;0.60;0.60;;;-11.10;99.90;;;;;;5113089;28;20191;-75
2022/12/13 09:18:04;;;;;;;0.60;0.60;;;-11.10;99.90;;;;;;5113271;28;20206;-75
2022/12/13 09:20:30;;;;;;;0.60;0.60;;;-11.10;99.90;;;;;;5094327;28;20214;-76
2022/12/13 09:23:00;;;;;;;0.60;0.60;;;-11.20;99.90;;;;;;5112940;28;20187;-76
2022/12/13 09:25:25;;;;;;;0.60;0.60;;;-11.30;99.90;;;;;;5113067;28;20188;-76
2022/12/13 09:27:53;;;;;;;0.60;0.60;;;-11.30;99.90;;;;;;5113112;28;20216;-75
2022/12/13 09:30:18;;;;;;;0.60;0.60;;;-11.30;99.90;;;;;;5094727;28;20198;-75
2022/12/13 09:32:48;;;;;;;0.50;0.50;;;-11.30;99.90;;;;;;5094659;28;20658;-74
2022/12/13 09:35:14;;;;;;;0.50;0.50;;;-11.20;99.90;;;;;;5094758;28;20617;-75
2022/12/13 09:37:43;;;;;;;0.50;0.50;;;-11.30;99.90;;;;;;5094469;28;21291;-75
2022/12/13 09:40:19;;;;;;;0.60;0.60;;;-11.30;99.90;;;;;;5113061;28;20191;-75
2022/12/13 09:42:49;;;;;;;0.50;0.50;;;-11.30;99.90;;;;;;5094315;28;20560;-75
2022/12/13 09:45:15;;;;;;;0.60;0.60;;;-11.20;99.90;;;;;;5113376;28;20196;-75
2022/12/13 09:47:44;;;;;;;0.60;0.60;;;-11.20;99.90;;;;;;5112683;28;20209;-76
2022/12/13 09:50:18;;;;;;;0.50;0.50;;;-11.20;99.90;;;;;;5112926;28;20187;-76
2022/12/13 09:52:45;;;;;;;0.60;0.60;;;-11.20;99.90;;;;;;5094458;28;20255;-76
2022/12/13 09:55:43;;;;;;;0.60;0.60;;;-11.20;99.90;;;;;;5112840;28;20612;-75
2022/12/13 09:58:29;;;;;;;0.50;0.50;;;-11.10;99.90;;;;;;5109370;28;20195;-75
2022/12/13 10:00:56;;;;;;;0.60;0.60;;;-11.10;99.90;;;;;;5094229;28;20211;-76
2022/12/13 10:03:23;;;;;;;0.70;0.70;;;-11.20;99.90;;;;;;5112465;28;20207;-75
2022/12/13 10:05:58;;;;;;;0.60;0.60;;;-11.20;99.90;;;;;;5112610;28;20188;-75
2022/12/13 10:08:41;;;;;;;0.50;0.50;;;-11.20;99.90;;;;;;5096475;28;20194;-76
2022/12/13 10:11:10;;;;;;;0.60;0.60;;;-11.10;99.90;;;;;;5098189;28;20738;-76
2022/12/13 10:13:44;;;;;;;0.60;0.60;;;-11.10;99.90;;;;;;5116218;28;20191;-76
2022/12/13 10:16:32;;;;;;;0.50;0.50;;;-11.10;99.90;;;;;;5098091;28;20206;-75
2022/12/13 10:18:57;;;;;;;0.60;0.60;;;-11.10;99.90;;;;;;5097994;28;20199;-75
2022/12/13 10:21:39;;;;;;;0.57;0.57;;;-11.00;99.90;;;;;;5115882;28;20227;-75
2022/12/13 10:24:29;;;;;;;0.60;0.60;;;-11.00;99.90;;;;;;5094783;28;20249;-74
2022/12/13 10:27:12;;;;;;;0.53;0.53;;;-11.00;99.90;;;;;;5095754;28;20735;-75
2022/12/13 10:30:07;;;;;;;0.50;0.50;;;-10.90;99.90;;;;;;5095576;28;20275;-74
2022/12/13 10:32:44;;;;;;;0.60;0.60;;;-10.90;99.90;;;;;;5095326;28;20200;-75
2022/12/13 10:35:37;;;;;;;0.50;0.50;;;-10.90;99.90;;;;;;5095789;28;20196;-75
2022/12/13 10:38:25;;;;;;;0.60;0.60;;;-10.90;99.90;;;;;;5074825;28;20679;-75
2022/12/13 10:40:51;;;;;;;0.50;0.50;;;-10.80;99.90;;;;;;5095397;28;20674;-74
2022/12/13 10:43:19;;;;;;;0.50;0.50;;;-10.70;99.90;;;;;;5095999;28;20192;-76
2022/12/13 10:45:59;;;;;;;0.60;0.60;;;-10.70;99.90;;;;;;5095340;28;20189;-74
2022/12/13 10:48:29;;;;;;;0.60;0.60;;;-10.60;99.90;;;;;;5077095;28;20203;-74
2022/12/13 10:51:06;;;;;;;0.60;0.60;;;-10.50;99.90;;;;;;5095353;28;20188;-75
2022/12/13 10:53:37;;;;;;;0.60;0.60;;;-10.50;99.90;;;;;;5100671;27;20251;-76
2022/12/13 10:56:06;;;;;;;0.50;0.50;;;-10.50;99.90;;;;;;5136423;27;20633;-76
2022/12/13 10:58:45;;;;;;;0.60;0.60;;;-10.50;99.90;;;;;;5135970;27;20199;-75
2022/12/13 11:01:17;;;;;;;0.50;0.50;;;-10.40;99.90;;;;;;5117636;27;20217;-75
2022/12/13 11:03:56;;;;;;;0.60;0.60;;;-10.30;99.90;;;;;;5135807;27;20255;-75
2022/12/13 11:06:21;;;;;;;0.60;0.60;;;-10.30;99.90;;;;;;5135928;27;20591;-76
2022/12/13 11:08:47;;;;;;;0.60;0.60;;;-10.30;99.90;;;;;;5135871;27;20730;-75
2022/12/13 11:11:17;;;;;;;0.60;0.60;;;-10.30;99.90;;;;;;5135869;27;20205;-76
2022/12/13 11:14:02;;;;;;;0.53;0.53;;;-10.30;99.90;;;;;;5117725;27;20207;-76
2022/12/13 11:16:39;;;;;;;0.50;0.50;;;-10.20;99.90;;;;;;5115110;28;20681;-75
2022/12/13 11:19:25;;;;;;;0.60;0.60;;;-10.20;99.90;;;;;;5096707;28;20289;-76
2022/12/13 11:21:53;;;;;;;0.60;0.60;;;-10.20;99.90;;;;;;5114971;28;20268;-75
2022/12/13 11:24:27;;;;;;;0.50;0.50;;;-10.20;99.90;;;;;;5093159;28;20226;-76
2022/12/13 11:27:21;;;;;;;0.50;0.50;;;-10.10;99.90;;;;;;5094678;28;20220;-77
2022/12/13 11:29:47;;;;;;;0.50;0.50;;;-10.10;99.90;;;;;;5088312;28;20670;-75
2022/12/13 11:32:17;;;;;;;0.50;0.50;;;-10.20;99.90;;;;;;5115240;28;20232;-76
2022/12/13 11:35:13;;;;;;;0.50;0.50;;;-10.10;99.90;;;;;;5114716;28;20654;-75
2022/12/13 11:38:02;;;;;;;0.50;0.50;;;-10.10;99.90;;;;;;5096236;28;20204;-74
2022/12/13 11:40:35;;;;;;;0.50;0.50;;;-10.10;99.90;;;;;;5130271;27;20192;-74
2022/12/13 11:43:10;;;;;;;0.50;0.50;;;-10.00;99.90;;;;;;5096452;28;20207;-74
2022/12/13 11:45:46;;;;;;;0.57;0.57;;;-10.10;99.90;;;;;;5096187;28;20673;-76
2022/12/13 11:48:23;;;;;;;0.57;0.57;;;-10.10;99.90;;;;;;5114633;28;20191;-74
2022/12/13 11:50:52;;;;;;;0.60;0.60;;;-10.10;99.90;;;;;;5114237;28;20199;-74
2022/12/13 11:53:18;;;;;;;0.50;0.50;;;-10.10;99.90;;;;;;5114547;28;20184;-74
2022/12/13 11:56:09;;;;;;;0.50;0.50;;;-10.00;99.90;;;;;;5114397;28;20613;-76
2022/12/13 11:58:38;;;;;;;0.60;0.60;;;-10.10;99.90;;;;;;5104761;28;20214;-75
2022/12/13 12:01:19;;;;;;;0.60;0.60;;;-10.10;99.90;;;;;;5114249;28;20670;-75
2022/12/13 12:03:59;;;;;;;0.60;0.60;;;-10.00;99.90;;;;;;5096026;28;20195;-74
2022/12/13 12:06:43;;;;;;;0.50;0.50;;;-9.90;99.90;;;;;;5129883;27;20241;-75
2022/12/13 12:09:16;;;;;;;0.60;0.60;;;-10.00;99.90;;;;;;5095883;28;20565;-75
2022/12/13 12:12:00;;;;;;;0.63;0.63;;;-10.10;99.90;;;;;;5113945;28;20195;-75
2022/12/13 12:14:42;;;;;;;0.60;0.60;;;-10.20;99.90;;;;;;5113970;28;20184;-75
2022/12/13 12:17:13;;;;;;;0.60;0.60;;;-10.30;99.90;;;;;;5114027;28;20276;-75
2022/12/13 12:19:44;;;;;;;0.50;0.50;;;-10.30;99.90;;;;;;5095543;28;20722;-75
2022/12/13 12:22:28;;;;;;;0.50;0.50;;;-10.30;99.90;;;;;;5091990;28;20224;-77
2022/12/13 12:25:12;;;;;;;0.60;0.60;;;-10.30;99.90;;;;;;5090584;28;20193;-76
2022/12/13 12:27:40;;;;;;;0.50;0.50;;;-10.20;99.90;;;;;;5091958;28;20652;-74
2022/12/13 12:30:26;;;;;;;0.50;0.50;;;-10.20;99.90;;;;;;5091626;28;20199;-74
2022/12/13 12:33:35;;;;;;;0.50;0.50;;;-10.10;99.90;;;;;;5093372;28;20184;-75
2022/12/13 12:36:20;;;;;;;0.57;0.57;;;-10.00;99.90;;;;;;5093323;28;20562;-74
2022/12/13 12:38:57;;;;;;;0.50;0.50;;;-9.90;99.90;;;;;;5093263;28;20185;-76
2022/12/13 12:41:48;;;;;;;0.50;0.50;;;-9.90;99.90;;;;;;5093094;28;20595;-75
2022/12/13 12:44:35;;;;;;;0.60;0.60;;;-9.90;99.90;;;;;;5093832;28;20223;-75
2022/12/13 12:47:32;;;;;;;0.77;0.77;;;-9.80;99.90;;;;;;5093103;28;20188;-75
2022/12/13 12:50:16;;;;;;;0.50;0.50;;;-9.70;99.90;;;;;;5126103;27;20196;-75
2022/12/13 12:53:00;;;;;;;0.50;0.50;;;-9.70;99.90;;;;;;5093198;28;20769;-75
2022/12/13 12:56:04;;;;;;;0.50;0.50;;;-9.50;99.90;;;;;;5091686;28;20202;-75
2022/12/13 12:58:42;;;;;;;0.50;0.50;;;-9.50;99.90;;;;;;5058316;28;20215;-76
2022/12/13 13:01:34;;;;;;;0.50;0.50;;;-9.50;99.90;;;;;;5092886;28;20250;-75
2022/12/13 13:04:04;;;;;;;0.50;0.50;;;-9.50;99.90;;;;;;5089864;28;20577;-75
2022/12/13 13:06:41;;;;;;;0.50;0.50;;;-9.40;99.90;;;;;;5092676;28;20204;-75